createdAt,value
2022-08-17T00:04:32.051Z,74.84
2022-08-17T00:09:33.206Z,76.18
2022-08-17T00:14:33.559Z,76.92
2022-08-17T00:19:33.728Z,78.06
2022-08-17T00:24:31.934Z,78.70
2022-08-17T00:29:36.226Z,78.00
2022-08-17T00:34:36.420Z,78.66
2022-08-17T00:39:36.646Z,78.86
2022-08-17T00:44:34.906Z,79.00
2022-08-17T00:49:37.207Z,79.21
2022-08-17T00:54:41.876Z,80.55
2022-08-17T00:59:37.467Z,80.75
2022-08-17T01:04:37.728Z,81.35
2022-08-17T01:09:36.890Z,81.90
2022-08-17T01:14:37.146Z,81.90
2022-08-17T01:19:38.412Z,80.95
2022-08-17T01:24:40.573Z,81.46
2022-08-17T01:29:39.813Z,82.50
2022-08-17T01:34:43.925Z,81.93
2022-08-17T01:39:41.142Z,82.10
2022-08-17T01:44:43.364Z,81.79
2022-08-17T01:49:41.598Z,82.30
2022-08-17T01:54:42.787Z,82.50
2022-08-17T01:59:43.963Z,81.05
2022-08-17T02:04:47.131Z,78.66
2022-08-17T02:09:45.446Z,75.14
2022-08-17T02:14:47.467Z,72.97
2022-08-17T02:19:48.662Z,75.14
2022-08-17T02:25:01.044Z,78.36
2022-08-17T02:29:48.787Z,81.05
2022-08-17T02:34:50.935Z,81.79
2022-08-17T02:39:50.338Z,82.20
2022-08-17T02:44:51.593Z,83.89
2022-08-17T02:49:55.639Z,85.54
2022-08-17T02:54:54.331Z,84.94
2022-08-17T02:59:53.637Z,84.09
2022-08-17T03:04:56.946Z,83.59
2022-08-17T03:09:56.340Z,84.23
2022-08-17T03:14:57.550Z,85.78
2022-08-17T03:19:58.873Z,86.29
2022-08-17T03:25:02.213Z,86.93
2022-08-17T03:30:01.327Z,86.33
2022-08-17T03:35:02.678Z,86.43
2022-08-17T03:40:05.210Z,87.43
2022-08-17T03:45:05.601Z,88.12
2022-08-17T03:50:04.862Z,87.98
2022-08-17T03:55:06.149Z,89.34
2022-08-17T04:00:07.463Z,89.68
2022-08-17T04:05:09.831Z,89.23
2022-08-17T04:10:10.088Z,89.13
2022-08-17T04:15:08.413Z,88.99
2022-08-17T04:20:09.655Z,87.34
2022-08-17T04:25:11.877Z,85.78
2022-08-17T04:30:12.148Z,83.12
2022-08-17T04:35:12.412Z,82.14
2022-08-17T04:40:12.670Z,81.76
2022-08-17T04:45:11.876Z,81.26
2022-08-17T04:50:11.658Z,80.71
2022-08-17T04:55:12.868Z,80.31
2022-08-17T05:00:15.315Z,80.68
2022-08-17T05:05:15.571Z,80.88
2022-08-17T05:10:14.790Z,79.83
2022-08-17T05:15:16.039Z,78.59
2022-08-17T05:20:17.467Z,78.96
2022-08-17T05:25:25.643Z,78.02
2022-08-17T05:30:18.037Z,77.28
2022-08-17T05:35:20.191Z,76.64
2022-08-17T05:40:20.494Z,76.43
2022-08-17T05:45:42.802Z,76.10
2022-08-17T05:50:23.207Z,76.74
2022-08-17T05:55:19.477Z,76.40
2022-08-17T06:00:20.424Z,75.87
2022-08-17T06:05:21.791Z,75.02
2022-08-17T06:10:22.831Z,75.59
2022-08-17T06:15:24.879Z,73.56
2022-08-17T06:20:24.919Z,73.42
2022-08-17T06:25:23.952Z,72.52
2022-08-17T06:30:25.930Z,73.82
2022-08-17T06:35:28.909Z,76.29
2022-08-17T06:40:25.746Z,76.59
2022-08-17T06:45:26.756Z,77.19
2022-08-17T06:50:27.856Z,75.89
2022-08-17T06:55:28.855Z,77.53
2022-08-17T07:00:30.013Z,78.63
2022-08-17T07:05:32.130Z,75.48
2022-08-17T07:10:31.100Z,73.08
2022-08-17T07:15:32.138Z,71.72
2022-08-17T07:20:35.222Z,69.36
2022-08-17T07:25:35.220Z,70.06
2022-08-17T07:30:37.186Z,72.52
2022-08-17T07:35:40.908Z,71.52
2022-08-17T07:40:35.657Z,70.79
2022-08-17T07:45:36.584Z,72.22
2022-08-17T07:50:35.527Z,72.22
2022-08-17T07:55:36.022Z,72.22
2022-08-17T08:00:37.903Z,71.58
2022-08-17T08:05:50.578Z,71.15
2022-08-17T08:10:37.839Z,70.29
2022-08-17T08:15:38.440Z,71.48
2022-08-17T08:20:52.111Z,72.31
2022-08-17T08:25:39.950Z,69.92
2022-08-17T08:30:38.809Z,68.07
2022-08-17T08:35:39.675Z,65.89
2022-08-17T08:40:40.521Z,67.11
2022-08-17T08:45:41.354Z,66.31
2022-08-17T08:50:42.263Z,67.57
2022-08-17T08:55:43.134Z,66.55
2022-08-17T09:00:44.027Z,65.19
2022-08-17T09:05:44.867Z,63.21
2022-08-17T09:10:46.288Z,65.65
2022-08-17T09:15:44.072Z,62.26
2022-08-17T09:20:48.062Z,60.34
2022-08-17T09:25:45.481Z,58.30
2022-08-17T09:30:47.375Z,58.09
2022-08-17T09:35:46.184Z,59.89
2022-08-17T09:40:46.957Z,57.04
2022-08-17T09:45:48.776Z,58.36
2022-08-17T09:50:55.375Z,57.44
2022-08-17T09:55:48.137Z,55.49
2022-08-17T10:00:49.005Z,58.36
2022-08-17T10:05:50.790Z,56.95
2022-08-17T10:10:52.437Z,57.29
2022-08-17T10:15:51.065Z,57.75
2022-08-17T10:20:53.917Z,57.18
2022-08-17T10:25:55.422Z,56.37
2022-08-17T10:31:05.300Z,56.46
2022-08-17T10:35:53.298Z,56.49
2022-08-17T10:40:54.965Z,55.51
2022-08-17T10:46:09.417Z,56.00
2022-08-17T10:50:55.421Z,56.67
2022-08-17T10:55:55.270Z,54.04
2022-08-17T11:00:54.093Z,54.10
2022-08-17T11:05:54.956Z,53.08
2022-08-17T11:10:55.750Z,55.69
2022-08-17T11:15:59.478Z,55.05
2022-08-17T11:20:57.222Z,54.06
2022-08-17T11:25:56.439Z,53.97
2022-08-17T11:30:55.392Z,54.94
2022-08-17T11:35:56.337Z,55.26
2022-08-17T11:40:59.269Z,54.94
2022-08-17T11:45:59.136Z,52.29
2022-08-17T11:50:58.910Z,52.76
2022-08-17T11:55:57.751Z,52.24
2022-08-17T12:00:58.489Z,53.62
2022-08-17T12:05:59.211Z,51.87
2022-08-17T12:11:01.042Z,53.22
2022-08-17T12:16:00.715Z,52.53
2022-08-17T12:21:00.433Z,53.22
2022-08-17T12:25:59.225Z,53.27
2022-08-17T12:30:58.910Z,53.03
2022-08-17T12:35:59.896Z,52.80
2022-08-17T12:41:02.271Z,51.79
2022-08-17T12:45:59.923Z,51.20
2022-08-17T12:51:00.647Z,50.98
2022-08-17T12:56:03.371Z,51.30
2022-08-17T13:01:05.024Z,50.88
2022-08-17T13:06:01.775Z,51.77
2022-08-17T13:11:02.434Z,50.88
2022-08-17T13:16:03.119Z,52.56
2022-08-17T13:21:03.812Z,50.68
2022-08-17T13:26:05.533Z,50.07
2022-08-17T13:31:07.232Z,48.32
2022-08-17T13:36:07.812Z,48.91
2022-08-17T13:41:04.754Z,49.97
2022-08-17T13:46:05.462Z,48.14
2022-08-17T13:51:06.198Z,49.06
2022-08-17T13:56:06.877Z,49.08
2022-08-17T14:01:07.527Z,49.80
2022-08-17T14:06:09.035Z,49.97
2022-08-17T14:11:08.674Z,50.36
2022-08-17T14:16:07.397Z,50.93
2022-08-17T14:21:08.039Z,50.85
2022-08-17T14:26:08.693Z,50.26
2022-08-17T14:31:09.376Z,51.42
2022-08-17T14:36:10.075Z,51.03
2022-08-17T14:41:10.821Z,51.84
2022-08-17T14:46:12.544Z,51.64
2022-08-17T14:51:12.200Z,51.25
2022-08-17T14:56:11.935Z,51.54
2022-08-17T15:01:11.843Z,50.54
2022-08-17T15:06:12.598Z,51.69
2022-08-17T15:11:14.302Z,51.89
2022-08-17T15:16:13.151Z,52.53
2022-08-17T15:21:12.830Z,53.42
2022-08-17T15:26:11.504Z,53.81
2022-08-17T15:31:12.156Z,53.52
2022-08-17T15:36:12.853Z,52.73
2022-08-17T15:41:13.527Z,53.32
2022-08-17T15:46:15.249Z,53.78
2022-08-17T15:51:13.967Z,54.47
2022-08-17T15:56:15.616Z,54.28
2022-08-17T16:01:18.432Z,58.16
2022-08-17T16:06:15.829Z,56.59
2022-08-17T16:11:13.748Z,55.01
2022-08-17T16:16:14.611Z,55.98
2022-08-17T16:21:15.347Z,56.35
2022-08-17T16:26:17.044Z,57.21
2022-08-17T16:31:15.753Z,58.06
2022-08-17T16:36:16.440Z,58.85
2022-08-17T16:41:18.182Z,58.36
2022-08-17T16:46:17.908Z,60.75
2022-08-17T16:51:17.635Z,59.57
2022-08-17T16:56:16.305Z,61.24
2022-08-17T17:01:17.267Z,58.28
2022-08-17T17:06:18.731Z,59.78
2022-08-17T17:11:18.543Z,59.29
2022-08-17T17:16:18.398Z,60.90
2022-08-17T17:21:17.275Z,62.84
2022-08-17T17:26:18.045Z,66.20
2022-08-17T17:31:18.879Z,65.90
2022-08-17T17:36:20.668Z,66.13
2022-08-17T17:41:25.302Z,64.61
2022-08-17T17:46:28.656Z,66.52
2022-08-17T17:52:05.277Z,64.87
2022-08-17T17:56:34.926Z,66.36
2022-08-17T18:01:20.602Z,68.60
2022-08-17T18:06:20.011Z,68.50
2022-08-17T18:11:24.074Z,69.06
2022-08-17T18:16:20.600Z,67.71
2022-08-17T18:21:19.477Z,66.42
2022-08-17T18:26:20.445Z,69.46
2022-08-17T18:31:23.272Z,71.57
2022-08-17T18:36:23.119Z,71.77
2022-08-17T18:41:22.968Z,70.62
2022-08-17T18:46:28.659Z,70.42
2022-08-17T18:51:21.504Z,73.00
2022-08-17T18:56:21.508Z,76.87
2022-08-17T19:01:21.639Z,76.32
2022-08-17T19:06:21.308Z,76.61
2022-08-17T19:11:22.227Z,74.39
2022-08-17T19:16:24.146Z,74.93
2022-08-17T19:21:24.079Z,78.28
2022-08-17T19:26:54.333Z,80.36
2022-08-17T19:31:22.440Z,74.80
2022-08-17T19:36:25.434Z,71.81
2022-08-17T19:41:24.400Z,70.48
2022-08-17T19:46:25.358Z,69.36
2022-08-17T19:51:28.293Z,70.48
2022-08-17T19:56:27.340Z,72.80
2022-08-17T20:01:34.414Z,72.24
2022-08-17T20:06:30.211Z,70.19
2022-08-17T20:11:30.370Z,71.25
2022-08-17T20:16:30.352Z,72.52
2022-08-17T20:21:29.708Z,72.05
2022-08-17T20:26:34.628Z,71.85
2022-08-17T20:31:31.030Z,69.26
2022-08-17T20:36:30.122Z,72.08
2022-08-17T20:41:32.121Z,70.53
2022-08-17T20:46:31.080Z,71.42
2022-08-17T20:51:32.062Z,71.36
2022-08-17T20:56:33.120Z,72.16
2022-08-17T21:01:33.234Z,70.72
2022-08-17T21:06:34.223Z,72.16
2022-08-17T21:11:57.372Z,70.76
2022-08-17T21:16:34.094Z,70.79
2022-08-17T21:21:36.081Z,71.95
2022-08-17T21:26:36.103Z,70.92
2022-08-17T21:31:36.986Z,69.13
2022-08-17T21:36:37.418Z,69.02
2022-08-17T21:41:36.498Z,71.26
2022-08-17T21:46:38.531Z,74.55
2022-08-17T21:51:39.589Z,75.26
2022-08-17T21:56:38.667Z,78.29
2022-08-17T22:01:41.973Z,81.77
2022-08-17T22:06:41.067Z,85.99
2022-08-17T22:11:42.275Z,85.17
2022-08-17T22:16:43.191Z,83.91
2022-08-17T22:21:45.343Z,85.31
2022-08-17T22:26:45.526Z,83.81
2022-08-17T22:31:44.633Z,84.71
2022-08-17T22:36:45.772Z,84.05
2022-08-17T22:41:47.012Z,85.66
2022-08-17T22:46:48.128Z,85.56
2022-08-17T22:51:53.193Z,86.96
2022-08-17T22:56:51.387Z,90.28
2022-08-17T23:01:52.102Z,91.18
2022-08-17T23:06:51.264Z,84.25
2022-08-17T23:11:53.397Z,82.04
2022-08-17T23:16:52.559Z,82.60
2022-08-17T23:21:53.729Z,82.95
2022-08-17T23:26:55.911Z,82.75
2022-08-17T23:31:55.110Z,83.15
2022-08-17T23:36:57.258Z,83.35
2022-08-17T23:41:56.433Z,84.19
2022-08-17T23:46:57.628Z,84.09
2022-08-17T23:52:00.855Z,84.23
2022-08-17T23:57:00.031Z,84.53
